Heckscherville, Pennsylvania
Current Conditions -  °F | °C
As of 11:58 AM on Wednesday 22 Oct 2014 (Local Time) from KMUI Reporting Station
Light Rain Light Rain  
Wind Chill: 53°   Ceiling: 2600
Heat Index: 53°   Visibility: 10mi
Dew Point: 53°   Wind: 8mph
Humidity: 99%   Direction: 10°N
Pressure: 29.98"   Gusts: NA
Location:  40.6882°N, 76.264°W
Report Text: KMUI 221558Z AUTO 01007KT 10SM -RA SCT019 OVC026 12/12 A2998 RMK AO2 CIG 020V027 SLP156 P0001 T01190118 $
Loading
Personal Weather Stations






























Interactive Weather Map
Tropical Storm Tracking
New forecast layout! Learn more

10-Day Weather Forecast

Advertisements
Track Severe Weather on mobile